createdAt,value
2019-05-21T00:01:56.811Z,39.10
2019-05-21T00:04:28.220Z,36.63
2019-05-21T00:06:55.503Z,30.87
2019-05-21T00:09:23.980Z,38.03
2019-05-21T00:11:52.921Z,36.93
2019-05-21T00:14:21.417Z,37.08
2019-05-21T00:16:49.880Z,36.17
2019-05-21T00:19:18.719Z,35.27
2019-05-21T00:21:47.403Z,30.13
2019-05-21T00:24:15.879Z,31.80
2019-05-21T00:26:44.350Z,30.27
2019-05-21T00:29:48.880Z,27.40
2019-05-21T00:32:53.730Z,27.13
2019-05-21T00:35:58.343Z,34.63
2019-05-21T00:39:03.271Z,31.30
2019-05-21T00:42:09.210Z,27.03
2019-05-21T00:44:40.966Z,32.60
2019-05-21T00:47:11.482Z,29.50
2019-05-21T00:49:40.187Z,28.37
2019-05-21T00:52:09.527Z,27.30
2019-05-21T00:54:38.458Z,25.77
2019-05-21T00:57:07.032Z,27.97
2019-05-21T00:59:35.878Z,28.03
2019-05-21T01:02:05.102Z,27.20
2019-05-21T01:04:33.673Z,29.60
2019-05-21T01:07:02.442Z,27.30
2019-05-21T01:09:31.696Z,28.57
2019-05-21T01:12:00.437Z,28.90
2019-05-21T01:14:28.937Z,28.67
2019-05-21T01:16:57.404Z,30.80
2019-05-21T01:19:25.938Z,30.03
2019-05-21T01:21:54.901Z,36.20
2019-05-21T01:24:23.450Z,35.33
2019-05-21T01:26:51.938Z,35.00
2019-05-21T01:29:20.413Z,33.80
2019-05-21T01:31:48.895Z,30.87
2019-05-21T01:34:17.398Z,26.97
2019-05-21T01:36:49.109Z,25.97
2019-05-21T01:39:20.589Z,29.10
2019-05-21T01:41:50.214Z,28.80
2019-05-21T01:44:18.758Z,28.57
2019-05-21T01:46:47.606Z,24.87
2019-05-21T01:49:16.087Z,25.92
2019-05-21T01:51:44.551Z,26.77
2019-05-21T01:54:13.050Z,29.03
2019-05-21T01:56:41.584Z,27.83
2019-05-21T01:59:10.058Z,32.77
2019-05-21T02:01:38.543Z,24.97
2019-05-21T02:04:07.265Z,23.47
2019-05-21T02:06:36.470Z,25.13
2019-05-21T02:09:07.385Z,27.17
2019-05-21T02:11:36.183Z,30.80
2019-05-21T02:14:05.331Z,23.50
2019-05-21T02:16:33.866Z,31.63
2019-05-21T02:19:02.502Z,32.23
2019-05-21T02:21:31.307Z,28.60
2019-05-21T02:24:00.046Z,29.50
2019-05-21T02:26:32.832Z,26.23
2019-05-21T02:29:01.734Z,30.03
2019-05-21T02:31:30.404Z,26.17
2019-05-21T02:34:03.699Z,28.43
2019-05-21T02:36:35.954Z,26.57
2019-05-21T02:39:08.595Z,29.63
2019-05-21T02:41:40.184Z,27.67
2019-05-21T02:44:10.321Z,29.27
2019-05-21T02:46:40.437Z,28.03
2019-05-21T02:49:15.992Z,30.43
2019-05-21T02:51:45.467Z,39.43
2019-05-21T02:54:15.404Z,28.30
2019-05-21T02:56:50.851Z,26.47
2019-05-21T02:59:21.227Z,26.23
2019-05-21T03:01:52.977Z,25.67
2019-05-21T03:04:24.862Z,28.20
2019-05-21T03:06:56.548Z,29.93
2019-05-21T03:09:29.831Z,25.27
2019-05-21T03:12:02.389Z,34.27
2019-05-21T03:14:34.268Z,29.20
2019-05-21T03:17:07.630Z,28.90
2019-05-21T03:19:36.859Z,25.27
2019-05-21T03:22:05.573Z,27.27
2019-05-21T03:24:34.200Z,33.13
2019-05-21T03:27:02.678Z,31.13
2019-05-21T03:29:31.306Z,31.97
2019-05-21T03:32:00.039Z,33.13
2019-05-21T03:34:28.638Z,30.10
2019-05-21T03:36:57.271Z,34.83
2019-05-21T03:39:25.838Z,27.83
2019-05-21T03:41:54.425Z,32.33
2019-05-21T03:44:22.904Z,34.67
2019-05-21T03:46:51.399Z,30.53
2019-05-21T03:49:19.951Z,27.00
2019-05-21T03:51:48.428Z,28.93
2019-05-21T03:54:16.963Z,33.20
2019-05-21T03:56:45.482Z,26.77
2019-05-21T03:59:13.971Z,28.40
2019-05-21T04:01:42.444Z,27.67
2019-05-21T04:04:10.966Z,21.73
2019-05-21T04:06:51.389Z,28.83
2019-05-21T04:09:09.694Z,24.10
2019-05-21T04:11:38.180Z,25.57
2019-05-21T04:14:06.648Z,23.13
2019-05-21T04:16:36.833Z,32.67
2019-05-21T04:19:09.694Z,27.40
2019-05-21T04:21:38.167Z,28.63
2019-05-21T04:24:09.023Z,29.80
2019-05-21T04:26:36.928Z,34.60
2019-05-21T04:29:05.493Z,30.13
2019-05-21T04:31:34.042Z,30.60
2019-05-21T04:34:02.686Z,38.83
2019-05-21T04:36:31.566Z,24.17
2019-05-21T04:39:00.084Z,28.47
2019-05-21T04:41:28.741Z,23.47
2019-05-21T04:43:57.305Z,27.37
2019-05-21T04:46:25.790Z,25.30
2019-05-21T04:48:54.298Z,23.37
2019-05-21T04:51:22.847Z,24.40
2019-05-21T04:53:51.555Z,21.37
2019-05-21T04:56:20.061Z,21.87
2019-05-21T04:58:48.906Z,23.50
2019-05-21T05:01:17.610Z,21.97
2019-05-21T05:03:46.089Z,19.90
2019-05-21T05:06:14.574Z,21.23
2019-05-21T05:08:43.138Z,19.40
2019-05-21T05:11:11.666Z,22.57
2019-05-21T05:13:40.171Z,20.80
2019-05-21T05:16:08.710Z,22.07
2019-05-21T05:18:37.250Z,23.50
2019-05-21T05:21:05.931Z,20.40
2019-05-21T05:23:34.477Z,20.17
2019-05-21T05:26:03.034Z,15.20
2019-05-21T05:28:31.510Z,19.00
2019-05-21T05:31:00.092Z,18.20
2019-05-21T05:33:28.645Z,21.73
2019-05-21T05:35:57.160Z,19.07
2019-05-21T05:38:25.706Z,22.13
2019-05-21T05:40:54.167Z,24.00
2019-05-21T05:43:22.675Z,22.73
2019-05-21T05:45:51.521Z,23.00
2019-05-21T05:48:20.560Z,22.90
2019-05-21T05:50:53.679Z,21.33
2019-05-21T05:53:22.274Z,23.03
2019-05-21T05:55:51.180Z,21.83
2019-05-21T05:58:19.682Z,19.53
2019-05-21T06:00:48.294Z,26.77
2019-05-21T06:03:16.856Z,21.27
2019-05-21T06:05:45.418Z,24.00
2019-05-21T06:08:13.891Z,22.67
2019-05-21T06:10:42.475Z,23.80
2019-05-21T06:13:11.394Z,21.23
2019-05-21T06:15:39.931Z,18.63
2019-05-21T06:18:09.058Z,19.53
2019-05-21T06:20:38.178Z,17.47
2019-05-21T06:23:06.766Z,20.93
2019-05-21T06:25:35.332Z,21.90
2019-05-21T06:28:04.153Z,22.57
2019-05-21T06:30:32.664Z,20.77
2019-05-21T06:33:01.135Z,21.63
2019-05-21T06:35:29.641Z,19.90
2019-05-21T06:37:58.242Z,19.83
2019-05-21T06:40:29.677Z,18.50
2019-05-21T06:42:58.512Z,19.00
2019-05-21T06:45:27.161Z,19.77
2019-05-21T06:47:55.714Z,18.33
2019-05-21T06:50:24.313Z,20.87
2019-05-21T06:52:52.884Z,19.07
2019-05-21T06:55:21.613Z,18.70
2019-05-21T06:57:50.096Z,16.93
2019-05-21T07:00:18.919Z,18.87
2019-05-21T07:02:47.452Z,19.40
2019-05-21T07:05:16.043Z,17.97
2019-05-21T07:07:44.556Z,20.70
2019-05-21T07:10:14.001Z,18.97
2019-05-21T07:12:42.563Z,17.63
2019-05-21T07:15:11.452Z,17.97
2019-05-21T07:17:40.033Z,19.23
2019-05-21T07:20:09.917Z,16.73
2019-05-21T07:22:38.499Z,15.27
2019-05-21T07:25:08.011Z,18.80
2019-05-21T07:27:37.193Z,20.90
2019-05-21T07:30:07.410Z,18.17
2019-05-21T07:32:35.905Z,15.80
2019-05-21T07:35:05.850Z,18.20
2019-05-21T07:37:53.738Z,22.30
2019-05-21T07:40:22.374Z,25.27
2019-05-21T07:42:50.911Z,20.73
2019-05-21T07:45:19.478Z,19.27
2019-05-21T07:47:47.952Z,17.57
2019-05-21T07:50:17.790Z,21.63
2019-05-21T07:52:46.508Z,20.13
2019-05-21T07:55:15.127Z,21.50
2019-05-21T07:57:43.678Z,22.07
2019-05-21T08:00:13.186Z,22.30
2019-05-21T08:02:41.683Z,28.17
2019-05-21T08:05:10.474Z,20.25
2019-05-21T08:07:38.963Z,19.50
2019-05-21T08:10:09.590Z,21.47
2019-05-21T08:12:39.865Z,24.43
2019-05-21T08:15:10.888Z,16.87
2019-05-21T08:17:39.682Z,22.07
2019-05-21T08:20:10.991Z,21.90
2019-05-21T08:22:39.664Z,21.17
2019-05-21T08:25:08.992Z,18.30
2019-05-21T08:27:37.524Z,19.90
2019-05-21T08:30:10.145Z,18.03
2019-05-21T08:32:38.814Z,24.23
2019-05-21T08:35:08.045Z,21.60
2019-05-21T08:37:36.515Z,21.10
2019-05-21T08:40:09.088Z,19.60
2019-05-21T08:42:37.638Z,21.87
2019-05-21T08:45:10.111Z,18.57
2019-05-21T08:47:38.674Z,15.10
2019-05-21T08:50:08.423Z,22.50
2019-05-21T08:52:37.043Z,22.43
2019-05-21T08:55:09.767Z,17.53
2019-05-21T08:57:38.462Z,18.43
2019-05-21T09:00:14.597Z,18.73
2019-05-21T09:02:43.811Z,21.93
2019-05-21T09:05:13.019Z,18.82
2019-05-21T09:07:41.556Z,20.37
2019-05-21T09:10:10.650Z,18.60
2019-05-21T09:12:39.179Z,17.90
2019-05-21T09:15:08.787Z,18.43
2019-05-21T09:17:45.769Z,16.67
2019-05-21T09:20:19.980Z,19.57
2019-05-21T09:22:48.478Z,18.30
2019-05-21T09:25:17.025Z,16.93
2019-05-21T09:27:51.420Z,20.73
2019-05-21T09:30:20.905Z,20.70
2019-05-21T09:32:49.457Z,27.63
2019-05-21T09:35:18.583Z,27.53
2019-05-21T09:37:47.115Z,20.13
2019-05-21T09:40:16.837Z,23.83
2019-05-21T09:42:45.731Z,21.80
2019-05-21T09:45:15.531Z,27.37
2019-05-21T09:47:44.159Z,24.67
2019-05-21T09:50:12.825Z,18.30
2019-05-21T09:52:41.395Z,17.17
2019-05-21T09:55:11.426Z,16.00
2019-05-21T09:57:41.690Z,17.27
2019-05-21T10:00:16.307Z,18.80
2019-05-21T10:02:45.420Z,17.40
2019-05-21T10:05:14.493Z,17.47
2019-05-21T10:07:48.292Z,17.70
2019-05-21T10:10:17.295Z,11.60
2019-05-21T10:12:45.843Z,13.53
2019-05-21T10:15:14.778Z,12.33
2019-05-21T10:17:43.368Z,7.40
2019-05-21T10:20:12.756Z,11.27
2019-05-21T10:22:41.241Z,17.17
2019-05-21T10:25:10.743Z,10.67
2019-05-21T10:27:39.236Z,11.43
2019-05-21T10:30:08.748Z,12.00
2019-05-21T10:32:37.319Z,10.93
2019-05-21T10:35:06.732Z,16.97
2019-05-21T10:37:35.237Z,13.77
2019-05-21T10:40:08.549Z,15.43
2019-05-21T10:42:37.632Z,15.27
2019-05-21T10:45:07.279Z,13.43
2019-05-21T10:47:35.831Z,12.30
2019-05-21T10:50:07.185Z,15.90
2019-05-21T10:52:36.106Z,17.60
2019-05-21T10:55:06.311Z,16.37
2019-05-21T10:57:34.788Z,16.63
2019-05-21T11:00:06.545Z,17.23
2019-05-21T11:02:36.672Z,14.63
2019-05-21T11:05:08.848Z,14.67
2019-05-21T11:07:37.318Z,13.10
2019-05-21T11:10:07.853Z,14.77
2019-05-21T11:12:56.319Z,9.70
2019-05-21T11:15:24.894Z,16.00
2019-05-21T11:18:08.985Z,12.23
2019-05-21T11:20:23.990Z,17.17
2019-05-21T11:22:52.477Z,13.90
2019-05-21T11:25:20.984Z,12.27
2019-05-21T11:27:49.530Z,13.23
2019-05-21T11:30:19.228Z,13.47
2019-05-21T11:32:48.170Z,11.13
2019-05-21T11:35:18.209Z,14.50
2019-05-21T11:37:48.013Z,13.80
2019-05-21T11:40:18.591Z,10.50
2019-05-21T11:42:47.215Z,12.67
2019-05-21T11:45:31.078Z,12.50
2019-05-21T11:47:46.501Z,12.73
2019-05-21T11:50:17.089Z,12.47
2019-05-21T11:52:46.393Z,13.78
2019-05-21T11:55:15.413Z,12.15
2019-05-21T11:57:44.047Z,11.83
2019-05-21T12:00:14.704Z,16.93
2019-05-21T12:02:43.219Z,8.60
2019-05-21T12:05:12.280Z,9.45
2019-05-21T12:07:40.749Z,11.55
2019-05-21T12:10:10.904Z,11.65
2019-05-21T12:12:39.433Z,7.97
2019-05-21T12:15:09.465Z,10.08
2019-05-21T12:17:37.988Z,10.82
2019-05-21T12:20:08.012Z,8.93
2019-05-21T12:22:36.718Z,13.53
2019-05-21T12:25:06.654Z,11.50
2019-05-21T12:27:35.198Z,10.25
2019-05-21T12:30:08.313Z,10.93
2019-05-21T12:32:37.036Z,12.75
2019-05-21T12:35:06.352Z,12.28
2019-05-21T12:37:35.341Z,12.63
2019-05-21T12:40:07.090Z,15.23
2019-05-21T12:42:36.086Z,10.55
2019-05-21T12:45:06.003Z,14.70
2019-05-21T12:47:34.688Z,11.80
2019-05-21T12:50:04.021Z,11.38
2019-05-21T12:52:33.907Z,10.53
2019-05-21T12:55:04.104Z,12.07
2019-05-21T12:57:32.614Z,11.75
2019-05-21T13:00:01.234Z,16.25
2019-05-21T13:02:29.785Z,14.15
2019-05-21T13:04:58.607Z,11.05
2019-05-21T13:07:27.145Z,12.25
2019-05-21T13:09:56.016Z,10.25
2019-05-21T13:12:24.592Z,11.93
2019-05-21T13:14:53.080Z,14.45
2019-05-21T13:17:21.558Z,13.20
2019-05-21T13:19:50.197Z,13.35
2019-05-21T13:22:18.824Z,13.35
2019-05-21T13:24:47.388Z,9.75
2019-05-21T13:27:15.939Z,13.50
2019-05-21T13:29:44.539Z,9.93
2019-05-21T13:32:13.105Z,9.05
2019-05-21T13:34:41.787Z,11.28
2019-05-21T13:37:10.348Z,11.22
2019-05-21T13:39:49.408Z,11.15
2019-05-21T13:42:09.199Z,14.80
2019-05-21T13:44:37.747Z,10.43
2019-05-21T13:47:06.413Z,13.83
2019-05-21T13:49:34.946Z,13.72
2019-05-21T13:52:03.450Z,13.38
2019-05-21T13:54:31.919Z,11.38
2019-05-21T13:57:00.407Z,14.23
2019-05-21T13:59:29.026Z,11.57
2019-05-21T14:01:57.485Z,13.30
2019-05-21T14:04:26.139Z,12.80
2019-05-21T14:06:55.379Z,14.58
2019-05-21T14:09:24.952Z,12.23
2019-05-21T14:11:54.094Z,12.82
2019-05-21T14:14:22.792Z,8.73
2019-05-21T14:16:51.558Z,11.15
2019-05-21T14:19:20.330Z,12.05
2019-05-21T14:21:49.385Z,7.90
2019-05-21T14:24:17.921Z,9.48
2019-05-21T14:26:46.463Z,11.33
2019-05-21T14:29:15.048Z,14.43
2019-05-21T14:31:43.819Z,15.30
2019-05-21T14:34:12.505Z,9.58
2019-05-21T14:36:41.112Z,10.82
2019-05-21T14:39:13.800Z,13.50
2019-05-21T14:41:42.739Z,13.83
2019-05-21T14:44:11.210Z,12.50
2019-05-21T14:46:39.785Z,13.83
2019-05-21T14:49:08.326Z,13.35
2019-05-21T14:51:36.809Z,15.35
2019-05-21T14:54:05.678Z,13.58
2019-05-21T14:56:34.153Z,13.53
2019-05-21T14:59:02.769Z,13.95
2019-05-21T15:01:31.364Z,11.93
2019-05-21T15:03:59.971Z,14.83
2019-05-21T15:06:28.866Z,13.62
2019-05-21T15:08:57.431Z,16.75
2019-05-21T15:11:25.972Z,14.38
2019-05-21T15:13:54.834Z,21.57
2019-05-21T15:16:23.306Z,16.25
2019-05-21T15:18:51.872Z,13.40
2019-05-21T15:21:22.345Z,12.33
2019-05-21T15:23:51.096Z,13.90
2019-05-21T15:26:20.081Z,13.13
2019-05-21T15:28:48.771Z,14.95
2019-05-21T15:31:17.264Z,13.40
2019-05-21T15:33:45.972Z,16.97
2019-05-21T15:36:14.514Z,16.13
2019-05-21T15:38:50.067Z,14.95
2019-05-21T15:41:13.294Z,13.35
2019-05-21T15:43:41.850Z,18.23
2019-05-21T15:46:10.398Z,13.28
2019-05-21T15:48:38.972Z,19.82
2019-05-21T15:51:07.444Z,14.23
2019-05-21T15:53:37.919Z,20.55
2019-05-21T15:56:09.334Z,17.70
2019-05-21T15:58:41.067Z,20.85
2019-05-21T16:01:12.906Z,16.15
2019-05-21T16:03:41.399Z,13.90
2019-05-21T16:06:09.929Z,13.83
2019-05-21T16:08:38.462Z,18.65
2019-05-21T16:11:07.267Z,14.55
2019-05-21T16:13:36.369Z,14.05
2019-05-21T16:16:04.998Z,14.07
2019-05-21T16:18:33.471Z,12.60
2019-05-21T16:21:01.945Z,13.50
2019-05-21T16:23:30.548Z,13.03
2019-05-21T16:25:59.494Z,17.40
2019-05-21T16:28:27.967Z,12.73
2019-05-21T16:30:56.705Z,12.80
2019-05-21T16:33:27.155Z,15.25
2019-05-21T16:35:55.398Z,16.77
2019-05-21T16:38:23.886Z,15.65
2019-05-21T16:40:52.387Z,19.27
2019-05-21T16:43:21.364Z,16.27
2019-05-21T16:45:49.976Z,16.70
2019-05-21T16:48:18.555Z,16.73
2019-05-21T16:50:47.045Z,14.40
2019-05-21T16:53:15.552Z,13.08
2019-05-21T16:55:44.133Z,18.30
2019-05-21T16:58:12.767Z,16.17
2019-05-21T17:00:41.319Z,18.25
2019-05-21T17:03:09.877Z,18.50
2019-05-21T17:05:38.362Z,21.77
2019-05-21T17:08:06.877Z,17.07
2019-05-21T17:10:35.432Z,16.97
2019-05-21T17:13:04.975Z,19.80
2019-05-21T17:15:33.480Z,15.60
2019-05-21T17:18:02.111Z,14.15
2019-05-21T17:20:34.086Z,15.63
2019-05-21T17:23:01.185Z,12.28
2019-05-21T17:25:29.723Z,15.72
2019-05-21T17:27:58.204Z,13.03
2019-05-21T17:30:26.831Z,16.87
2019-05-21T17:32:55.707Z,19.05
2019-05-21T17:35:24.504Z,15.78
2019-05-21T17:37:53.057Z,14.87
2019-05-21T17:40:21.636Z,15.43
2019-05-21T17:42:50.182Z,15.35
2019-05-21T17:45:18.843Z,12.30
2019-05-21T17:47:47.403Z,13.83
2019-05-21T17:50:17.774Z,14.73
2019-05-21T17:52:46.278Z,18.92
2019-05-21T17:55:15.103Z,12.10
2019-05-21T17:57:43.782Z,12.80
2019-05-21T18:00:13.352Z,14.20
2019-05-21T18:02:42.402Z,17.07
2019-05-21T18:05:12.297Z,11.50
2019-05-21T18:07:42.865Z,15.03
2019-05-21T18:10:14.374Z,14.17
2019-05-21T18:12:44.914Z,16.63
2019-05-21T18:15:14.482Z,12.50
2019-05-21T18:17:44.104Z,16.27
2019-05-21T18:20:15.361Z,12.93
2019-05-21T18:22:45.606Z,10.77
2019-05-21T18:25:15.375Z,11.77
2019-05-21T18:27:44.102Z,11.97
2019-05-21T18:30:13.612Z,9.80
2019-05-21T18:32:46.561Z,10.73
2019-05-21T18:35:15.646Z,12.40
2019-05-21T18:37:44.943Z,10.47
2019-05-21T18:40:14.979Z,11.50
2019-05-21T18:42:43.453Z,14.77
2019-05-21T18:45:12.463Z,10.73
2019-05-21T18:47:41.362Z,12.43
2019-05-21T18:50:11.091Z,13.20
2019-05-21T18:52:39.702Z,11.77
2019-05-21T18:55:08.345Z,12.57
2019-05-21T18:57:36.821Z,13.30
2019-05-21T19:00:08.367Z,13.13
2019-05-21T19:02:36.852Z,13.73
2019-05-21T19:05:09.412Z,14.33
2019-05-21T19:07:38.021Z,14.63
2019-05-21T19:10:09.497Z,16.87
2019-05-21T19:12:39.011Z,14.50
2019-05-21T19:15:09.036Z,14.13
2019-05-21T19:17:37.582Z,13.43
2019-05-21T19:20:08.987Z,15.50
2019-05-21T19:22:37.700Z,15.27
2019-05-21T19:25:14.503Z,15.13
2019-05-21T19:27:44.002Z,14.63
2019-05-21T19:30:20.389Z,18.15
2019-05-21T19:32:52.058Z,18.53
2019-05-21T19:35:21.017Z,17.03
2019-05-21T19:37:50.055Z,17.70
2019-05-21T19:40:20.598Z,15.57
2019-05-21T19:42:55.015Z,14.60
2019-05-21T19:45:20.143Z,15.07
2019-05-21T19:47:48.695Z,17.53
2019-05-21T19:50:19.567Z,13.00
2019-05-21T19:52:48.140Z,14.97
2019-05-21T19:55:16.977Z,14.80
2019-05-21T19:57:48.095Z,15.20
2019-05-21T20:00:19.855Z,15.57
2019-05-21T20:02:53.069Z,20.70
2019-05-21T20:05:22.088Z,14.83
2019-05-21T20:07:52.577Z,19.53
2019-05-21T20:10:21.705Z,21.93
2019-05-21T20:12:50.895Z,16.73
2019-05-21T20:15:19.572Z,18.70
2019-05-21T20:17:51.064Z,18.23
2019-05-21T20:20:30.202Z,20.47
2019-05-21T20:22:57.363Z,22.47
2019-05-21T20:25:26.636Z,21.23
2019-05-21T20:27:56.473Z,21.23
2019-05-21T20:30:27.317Z,18.67
2019-05-21T20:32:57.612Z,22.10
2019-05-21T20:35:27.868Z,21.33
2019-05-21T20:37:56.516Z,21.47
2019-05-21T20:40:25.859Z,27.30
2019-05-21T20:42:54.800Z,27.13
2019-05-21T20:45:30.479Z,25.03
2019-05-21T20:47:59.917Z,26.00
2019-05-21T20:50:28.534Z,23.87
2019-05-21T20:52:57.284Z,25.77
2019-05-21T20:55:31.114Z,25.93
2019-05-21T20:58:00.142Z,27.00
2019-05-21T21:00:30.601Z,25.40
2019-05-21T21:03:00.611Z,25.83
2019-05-21T21:05:29.617Z,20.87
2019-05-21T21:07:59.514Z,22.23
2019-05-21T21:10:28.916Z,27.27
2019-05-21T21:12:59.062Z,26.20
2019-05-21T21:15:27.859Z,22.63
2019-05-21T21:17:56.334Z,23.03
2019-05-21T21:20:25.094Z,31.00
2019-05-21T21:22:54.452Z,26.30
2019-05-21T21:25:26.189Z,26.87
2019-05-21T21:27:55.128Z,31.30
2019-05-21T21:30:24.183Z,29.67
2019-05-21T21:32:53.796Z,26.00
2019-05-21T21:35:23.012Z,24.80
2019-05-21T21:37:51.542Z,22.77
2019-05-21T21:40:22.013Z,27.30
2019-05-21T21:42:51.539Z,24.87
2019-05-21T21:45:20.491Z,20.90
2019-05-21T21:47:49.543Z,20.80
2019-05-21T21:50:18.511Z,20.10
2019-05-21T21:52:47.571Z,18.73
2019-05-21T21:55:16.815Z,17.80
2019-05-21T21:57:45.432Z,16.60
2019-05-21T22:00:52.838Z,13.97
2019-05-21T22:03:22.224Z,14.27
2019-05-21T22:05:51.299Z,15.80
2019-05-21T22:08:23.483Z,13.57
2019-05-21T22:10:52.590Z,17.47
2019-05-21T22:13:21.096Z,12.63
2019-05-21T22:15:50.842Z,15.53
2019-05-21T22:18:19.897Z,10.80
2019-05-21T22:20:49.301Z,15.07
2019-05-21T22:23:18.485Z,14.53
2019-05-21T22:25:47.433Z,12.80
2019-05-21T22:28:17.378Z,12.73
2019-05-21T22:30:46.385Z,10.63
2019-05-21T22:33:16.301Z,12.28
2019-05-21T22:35:44.863Z,15.10
2019-05-21T22:38:13.711Z,12.33
2019-05-21T22:40:42.311Z,15.17
2019-05-21T22:43:10.913Z,13.57
2019-05-21T22:45:41.165Z,12.80
2019-05-21T22:48:09.976Z,16.53
2019-05-21T22:50:38.785Z,16.67
2019-05-21T22:53:08.197Z,12.17
2019-05-21T22:55:36.729Z,15.40
2019-05-21T22:58:05.828Z,13.73
2019-05-21T23:00:34.900Z,14.47
2019-05-21T23:03:03.950Z,18.77
2019-05-21T23:05:32.926Z,16.07
2019-05-21T23:08:02.808Z,17.27
2019-05-21T23:10:32.223Z,16.33
2019-05-21T23:13:01.759Z,22.90
2019-05-21T23:15:30.540Z,19.33
2019-05-21T23:17:59.037Z,16.70
2019-05-21T23:20:29.718Z,16.50
2019-05-21T23:22:59.526Z,19.40
2019-05-21T23:25:30.126Z,24.80
2019-05-21T23:27:59.355Z,24.03
2019-05-21T23:30:28.675Z,21.57
2019-05-21T23:32:58.011Z,21.73
2019-05-21T23:35:27.962Z,26.87
2019-05-21T23:37:57.493Z,20.40
2019-05-21T23:40:26.261Z,22.57
2019-05-21T23:42:55.222Z,21.57
2019-05-21T23:45:24.505Z,18.77
2019-05-21T23:47:53.728Z,14.27
2019-05-21T23:50:24.590Z,18.50
2019-05-21T23:52:54.798Z,12.03
2019-05-21T23:55:23.503Z,15.27
2019-05-21T23:57:52.618Z,12.93
